sensor_id;sensor_type;location;lat;lon;timestamp;temperature;humidity
5222;DHT22;2630;52.036;8.514;2023-07-29T00:26:26;19.40;99.90
5222;DHT22;2630;52.036;8.514;2023-07-29T01:05:30;19.20;99.90
5222;DHT22;2630;52.036;8.514;2023-07-29T01:08:14;19.10;99.90
5222;DHT22;2630;52.036;8.514;2023-07-29T01:16:17;19.10;99.90
5222;DHT22;2630;52.036;8.514;2023-07-29T01:18:47;19.10;99.90
5222;DHT22;2630;52.036;8.514;2023-07-29T01:26:05;19.10;99.90
5222;DHT22;2630;52.036;8.514;2023-07-29T01:31:13;19.10;99.90
5222;DHT22;2630;52.036;8.514;2023-07-29T01:33:48;19.10;99.90
5222;DHT22;2630;52.036;8.514;2023-07-29T01:36:22;19.10;99.90
5222;DHT22;2630;52.036;8.514;2023-07-29T01:38:53;19.10;99.90
5222;DHT22;2630;52.036;8.514;2023-07-29T01:41:20;19.10;99.90
5222;DHT22;2630;52.036;8.514;2023-07-29T01:43:47;19.10;99.90
5222;DHT22;2630;52.036;8.514;2023-07-29T01:51:05;19.00;99.90
5222;DHT22;2630;52.036;8.514;2023-07-29T02:13:01;19.00;99.90
5222;DHT22;2630;52.036;8.514;2023-07-29T02:20:19;18.90;99.90
5222;DHT22;2630;52.036;8.514;2023-07-29T02:30:03;18.80;99.90
5222;DHT22;2630;52.036;8.514;2023-07-29T02:34:55;18.70;99.90
5222;DHT22;2630;52.036;8.514;2023-07-29T02:39:47;18.70;99.90
5222;DHT22;2630;52.036;8.514;2023-07-29T02:44:40;18.70;99.90
5222;DHT22;2630;52.036;8.514;2023-07-29T03:21:11;18.80;99.90
5222;DHT22;2630;52.036;8.514;2023-07-29T03:28:37;18.80;99.90
5222;DHT22;2630;52.036;8.514;2023-07-29T03:45:40;19.00;99.90
5222;DHT22;2630;52.036;8.514;2023-07-29T03:50:34;19.10;99.90
5222;DHT22;2630;52.036;8.514;2023-07-29T04:05:11;19.10;99.90
5222;DHT22;2630;52.036;8.514;2023-07-29T04:10:03;19.00;99.90
5222;DHT22;2630;52.036;8.514;2023-07-29T04:17:21;19.00;99.90
5222;DHT22;2630;52.036;8.514;2023-07-29T04:22:15;19.10;99.90
5222;DHT22;2630;52.036;8.514;2023-07-29T04:41:43;19.30;99.90
5222;DHT22;2630;52.036;8.514;2023-07-29T04:46:36;19.40;99.90
5222;DHT22;2630;52.036;8.514;2023-07-29T05:20:42;19.50;99.90
5222;DHT22;2630;52.036;8.514;2023-07-29T05:25:33;19.50;99.90
5222;DHT22;2630;52.036;8.514;2023-07-29T05:32:56;19.60;99.90
5222;DHT22;2630;52.036;8.514;2023-07-29T05:40:14;19.70;99.90
5222;DHT22;2630;52.036;8.514;2023-07-29T05:52:23;19.80;99.90
5222;DHT22;2630;52.036;8.514;2023-07-29T06:04:33;19.90;99.90
5222;DHT22;2630;52.036;8.514;2023-07-29T06:06:59;19.80;99.90
5222;DHT22;2630;52.036;8.514;2023-07-29T06:11:53;19.80;99.90
5222;DHT22;2630;52.036;8.514;2023-07-29T06:24:03;19.90;99.90
5222;DHT22;2630;52.036;8.514;2023-07-29T06:28:54;19.80;99.90
5222;DHT22;2630;52.036;8.514;2023-07-29T06:36:12;19.80;99.90
5222;DHT22;2630;52.036;8.514;2023-07-29T06:38:37;19.80;99.90
5222;DHT22;2630;52.036;8.514;2023-07-29T06:41:04;19.80;99.90
5222;DHT22;2630;52.036;8.514;2023-07-29T06:45:56;20.00;99.90
5222;DHT22;2630;52.036;8.514;2023-07-29T06:58:07;20.30;99.90
5222;DHT22;2630;52.036;8.514;2023-07-29T07:07:50;20.30;99.90
5222;DHT22;2630;52.036;8.514;2023-07-29T07:15:08;20.30;99.90
5222;DHT22;2630;52.036;8.514;2023-07-29T07:29:43;20.10;99.90
5222;DHT22;2630;52.036;8.514;2023-07-29T07:32:09;20.20;99.90
5222;DHT22;2630;52.036;8.514;2023-07-29T07:37:01;20.30;99.90
5222;DHT22;2630;52.036;8.514;2023-07-29T07:41:55;20.50;99.90
5222;DHT22;2630;52.036;8.514;2023-07-29T07:49:14;20.80;99.90
5222;DHT22;2630;52.036;8.514;2023-07-29T07:51:39;21.00;99.90
5222;DHT22;2630;52.036;8.514;2023-07-29T07:56:31;21.10;99.90
5222;DHT22;2630;52.036;8.514;2023-07-29T08:13:33;21.00;99.90
5222;DHT22;2630;52.036;8.514;2023-07-29T08:18:24;20.80;99.90
5222;DHT22;2630;52.036;8.514;2023-07-29T08:23:19;20.90;99.90
5222;DHT22;2630;52.036;8.514;2023-07-29T08:33:02;21.00;99.90
5222;DHT22;2630;52.036;8.514;2023-07-29T08:40:27;21.00;99.90
5222;DHT22;2630;52.036;8.514;2023-07-29T08:42:57;21.10;99.90
5222;DHT22;2630;52.036;8.514;2023-07-29T08:45:24;21.30;99.90
5222;DHT22;2630;52.036;8.514;2023-07-29T08:47:54;21.50;99.90
5222;DHT22;2630;52.036;8.514;2023-07-29T08:52:50;21.80;99.90
5222;DHT22;2630;52.036;8.514;2023-07-29T08:55:17;22.00;99.90
5222;DHT22;2630;52.036;8.514;2023-07-29T08:57:43;22.40;99.90
5222;DHT22;2630;52.036;8.514;2023-07-29T09:00:10;22.70;99.90
5222;DHT22;2630;52.036;8.514;2023-07-29T09:02:36;23.00;99.90
5222;DHT22;2630;52.036;8.514;2023-07-29T09:05:02;23.10;99.90
5222;DHT22;2630;52.036;8.514;2023-07-29T09:07:29;23.30;99.90
5222;DHT22;2630;52.036;8.514;2023-07-29T09:09:54;23.20;99.90
5222;DHT22;2630;52.036;8.514;2023-07-29T09:14:46;22.80;99.90
5222;DHT22;2630;52.036;8.514;2023-07-29T09:17:12;22.60;99.90
5222;DHT22;2630;52.036;8.514;2023-07-29T09:19:39;22.20;99.90
5222;DHT22;2630;52.036;8.514;2023-07-29T09:22:05;22.20;99.90
5222;DHT22;2630;52.036;8.514;2023-07-29T09:29:23;23.80;99.90
5222;DHT22;2630;52.036;8.514;2023-07-29T09:34:15;26.30;99.90
5222;DHT22;2630;52.036;8.514;2023-07-29T09:36:42;27.60;99.90
5222;DHT22;2630;52.036;8.514;2023-07-29T09:39:11;29.00;99.90
5222;DHT22;2630;52.036;8.514;2023-07-29T09:44:05;30.50;99.90
5222;DHT22;2630;52.036;8.514;2023-07-29T09:46:37;31.80;99.90
5222;DHT22;2630;52.036;8.514;2023-07-29T09:49:07;31.00;99.90
5222;DHT22;2630;52.036;8.514;2023-07-29T09:51:40;30.50;99.90
5222;DHT22;2630;52.036;8.514;2023-07-29T09:58:58;32.50;99.90
5222;DHT22;2630;52.036;8.514;2023-07-29T10:01:24;32.60;98.30
5222;DHT22;2630;52.036;8.514;2023-07-29T10:03:50;32.50;99.90
5222;DHT22;2630;52.036;8.514;2023-07-29T10:08:45;32.20;98.70
5222;DHT22;2630;52.036;8.514;2023-07-29T10:13:37;31.80;97.90
5222;DHT22;2630;52.036;8.514;2023-07-29T10:16:04;30.30;98.60
5222;DHT22;2630;52.036;8.514;2023-07-29T10:18:31;29.50;99.90
5222;DHT22;2630;52.036;8.514;2023-07-29T10:23:26;28.70;99.90
5222;DHT22;2630;52.036;8.514;2023-07-29T10:28:25;27.40;99.90
5222;DHT22;2630;52.036;8.514;2023-07-29T10:33:18;25.50;99.90
5222;DHT22;2630;52.036;8.514;2023-07-29T10:40:47;24.80;99.90
5222;DHT22;2630;52.036;8.514;2023-07-29T10:43:23;24.50;99.90
5222;DHT22;2630;52.036;8.514;2023-07-29T10:45:49;24.20;99.90
5222;DHT22;2630;52.036;8.514;2023-07-29T10:51:28;24.00;99.90
5222;DHT22;2630;52.036;8.514;2023-07-29T10:54:10;24.00;99.90
5222;DHT22;2630;52.036;8.514;2023-07-29T10:59:32;24.20;99.90
5222;DHT22;2630;52.036;8.514;2023-07-29T11:01:59;24.30;99.90
5222;DHT22;2630;52.036;8.514;2023-07-29T11:04:29;24.20;99.90
5222;DHT22;2630;52.036;8.514;2023-07-29T11:09:54;23.40;99.90
5222;DHT22;2630;52.036;8.514;2023-07-29T11:12:39;23.60;99.90
5222;DHT22;2630;52.036;8.514;2023-07-29T11:15:20;23.80;99.90
5222;DHT22;2630;52.036;8.514;2023-07-29T11:17:52;23.70;99.90
5222;DHT22;2630;52.036;8.514;2023-07-29T11:22:46;24.00;99.90
5222;DHT22;2630;52.036;8.514;2023-07-29T11:25:13;24.20;99.90
5222;DHT22;2630;52.036;8.514;2023-07-29T11:27:39;24.20;99.90
5222;DHT22;2630;52.036;8.514;2023-07-29T11:30:07;24.10;99.90
5222;DHT22;2630;52.036;8.514;2023-07-29T11:32:37;24.10;99.90
5222;DHT22;2630;52.036;8.514;2023-07-29T11:35:18;24.30;99.90
5222;DHT22;2630;52.036;8.514;2023-07-29T11:50:05;24.60;99.90
5222;DHT22;2630;52.036;8.514;2023-07-29T12:09:37;24.20;99.90
5222;DHT22;2630;52.036;8.514;2023-07-29T12:14:33;24.40;99.90
5222;DHT22;2630;52.036;8.514;2023-07-29T12:17:03;24.60;99.90
5222;DHT22;2630;52.036;8.514;2023-07-29T12:19:36;24.90;99.90
5222;DHT22;2630;52.036;8.514;2023-07-29T12:22:04;24.80;99.90
5222;DHT22;2630;52.036;8.514;2023-07-29T12:24:31;24.70;99.90
5222;DHT22;2630;52.036;8.514;2023-07-29T12:31:58;24.50;99.90
5222;DHT22;2630;52.036;8.514;2023-07-29T12:34:26;24.40;99.90
5222;DHT22;2630;52.036;8.514;2023-07-29T12:39:28;24.60;99.90
5222;DHT22;2630;52.036;8.514;2023-07-29T12:44:23;24.50;99.90
5222;DHT22;2630;52.036;8.514;2023-07-29T13:06:19;24.40;99.90
5222;DHT22;2630;52.036;8.514;2023-07-29T13:11:19;24.60;99.90
5222;DHT22;2630;52.036;8.514;2023-07-29T13:16:11;24.60;99.90
5222;DHT22;2630;52.036;8.514;2023-07-29T13:25:57;24.60;99.90
5222;DHT22;2630;52.036;8.514;2023-07-29T13:38:07;24.60;99.90
5222;DHT22;2630;52.036;8.514;2023-07-29T13:42:58;24.80;99.90
5222;DHT22;2630;52.036;8.514;2023-07-29T13:50:16;25.30;99.90
5222;DHT22;2630;52.036;8.514;2023-07-29T13:55:09;25.00;99.90
5222;DHT22;2630;52.036;8.514;2023-07-29T13:57:35;24.80;99.90
5222;DHT22;2630;52.036;8.514;2023-07-29T14:02:27;25.50;99.90
5222;DHT22;2630;52.036;8.514;2023-07-29T14:04:53;25.90;99.90
5222;DHT22;2630;52.036;8.514;2023-07-29T14:09:45;26.50;99.90
5222;DHT22;2630;52.036;8.514;2023-07-29T14:14:38;26.70;99.90
5222;DHT22;2630;52.036;8.514;2023-07-29T14:17:04;26.60;99.90
5222;DHT22;2630;52.036;8.514;2023-07-29T14:19:30;26.00;99.90
5222;DHT22;2630;52.036;8.514;2023-07-29T14:24:22;25.80;99.90
5222;DHT22;2630;52.036;8.514;2023-07-29T14:26:48;25.80;99.90
5222;DHT22;2630;52.036;8.514;2023-07-29T14:29:13;25.80;99.90
5222;DHT22;2630;52.036;8.514;2023-07-29T14:34:05;25.10;99.90
5222;DHT22;2630;52.036;8.514;2023-07-29T14:38:56;24.30;99.90
5222;DHT22;2630;52.036;8.514;2023-07-29T14:48:40;23.70;99.90
5222;DHT22;2630;52.036;8.514;2023-07-29T14:55:57;23.20;99.90
5222;DHT22;2630;52.036;8.514;2023-07-29T16:18:59;17.90;99.90
5222;DHT22;2630;52.036;8.514;2023-07-29T16:33:39;18.20;99.90
5222;DHT22;2630;52.036;8.514;2023-07-29T17:10:09;18.20;99.90
5222;DHT22;2630;52.036;8.514;2023-07-29T17:32:03;18.40;99.90
5222;DHT22;2630;52.036;8.514;2023-07-29T18:06:14;18.40;99.90
5222;DHT22;2630;52.036;8.514;2023-07-29T18:08:40;18.40;99.90
5222;DHT22;2630;52.036;8.514;2023-07-29T18:11:06;18.30;99.90
5222;DHT22;2630;52.036;8.514;2023-07-29T18:16:02;18.30;99.90
5222;DHT22;2630;52.036;8.514;2023-07-29T18:18:27;18.30;99.90
5222;DHT22;2630;52.036;8.514;2023-07-29T18:20:54;18.40;99.90
5222;DHT22;2630;52.036;8.514;2023-07-29T18:25:47;18.30;99.90
5222;DHT22;2630;52.036;8.514;2023-07-29T18:35:40;18.20;99.90
5222;DHT22;2630;52.036;8.514;2023-07-29T18:40:32;18.10;99.90
5222;DHT22;2630;52.036;8.514;2023-07-29T18:47:49;18.10;99.90
5222;DHT22;2630;52.036;8.514;2023-07-29T18:50:16;18.00;99.90
5222;DHT22;2630;52.036;8.514;2023-07-29T18:52:42;18.00;99.90
5222;DHT22;2630;52.036;8.514;2023-07-29T18:55:08;18.00;99.90
5222;DHT22;2630;52.036;8.514;2023-07-29T18:57:33;17.90;99.90
5222;DHT22;2630;52.036;8.514;2023-07-29T19:07:19;17.90;99.90
5222;DHT22;2630;52.036;8.514;2023-07-29T19:14:40;17.80;99.90
5222;DHT22;2630;52.036;8.514;2023-07-29T19:26:50;17.80;99.90
5222;DHT22;2630;52.036;8.514;2023-07-29T19:29:16;17.80;99.90
5222;DHT22;2630;52.036;8.514;2023-07-29T19:34:08;17.80;99.90
5222;DHT22;2630;52.036;8.514;2023-07-29T19:46:20;17.80;99.90
5222;DHT22;2630;52.036;8.514;2023-07-29T19:48:45;17.80;99.90
5222;DHT22;2630;52.036;8.514;2023-07-29T19:53:38;17.80;99.90
5222;DHT22;2630;52.036;8.514;2023-07-29T19:56:04;17.80;99.90
5222;DHT22;2630;52.036;8.514;2023-07-29T19:58:29;17.80;99.90
5222;DHT22;2630;52.036;8.514;2023-07-29T20:15:52;17.80;99.90
5222;DHT22;2630;52.036;8.514;2023-07-29T21:21:45;17.70;99.90
5222;DHT22;2630;52.036;8.514;2023-07-29T21:24:11;17.70;99.90
5222;DHT22;2630;52.036;8.514;2023-07-29T21:33:55;17.80;99.90
5222;DHT22;2630;52.036;8.514;2023-07-29T21:36:21;17.80;99.90
5222;DHT22;2630;52.036;8.514;2023-07-29T21:38:47;17.80;99.90
5222;DHT22;2630;52.036;8.514;2023-07-29T21:43:40;17.80;99.90
5222;DHT22;2630;52.036;8.514;2023-07-29T21:50:59;18.00;99.90
5222;DHT22;2630;52.036;8.514;2023-07-29T21:58:17;17.90;99.90
5222;DHT22;2630;52.036;8.514;2023-07-29T22:00:42;17.90;99.90
5222;DHT22;2630;52.036;8.514;2023-07-29T22:03:08;17.90;99.90
5222;DHT22;2630;52.036;8.514;2023-07-29T22:12:52;17.80;99.90
5222;DHT22;2630;52.036;8.514;2023-07-29T22:15:19;17.80;99.90
5222;DHT22;2630;52.036;8.514;2023-07-29T22:20:11;17.80;99.90
5222;DHT22;2630;52.036;8.514;2023-07-29T22:22:37;17.80;99.90
5222;DHT22;2630;52.036;8.514;2023-07-29T22:25:02;17.80;99.90
5222;DHT22;2630;52.036;8.514;2023-07-29T22:27:28;17.80;99.90
5222;DHT22;2630;52.036;8.514;2023-07-29T22:32:20;17.90;99.90
5222;DHT22;2630;52.036;8.514;2023-07-29T22:39:37;18.00;99.90
5222;DHT22;2630;52.036;8.514;2023-07-29T22:42:03;18.00;99.90
5222;DHT22;2630;52.036;8.514;2023-07-29T22:46:54;17.80;99.90
5222;DHT22;2630;52.036;8.514;2023-07-29T23:11:13;17.80;99.90
5222;DHT22;2630;52.036;8.514;2023-07-29T23:23:39;17.70;99.90
5222;DHT22;2630;52.036;8.514;2023-07-29T23:43:13;17.40;99.90
5222;DHT22;2630;52.036;8.514;2023-07-29T23:48:04;17.30;99.90
5222;DHT22;2630;52.036;8.514;2023-07-29T23:55:23;17.20;99.90
5222;DHT22;2630;52.036;8.514;2023-07-29T23:57:49;17.20;99.90
